createdAt,value
2022-11-06T00:02:05.080Z,8.10
2022-11-06T00:04:32.676Z,8.10
2022-11-06T00:06:59.670Z,8.00
2022-11-06T00:09:26.672Z,8.10
2022-11-06T00:11:53.711Z,8.10
2022-11-06T00:14:20.781Z,8.10
2022-11-06T00:16:48.099Z,8.00
2022-11-06T00:21:44.141Z,8.10
2022-11-06T00:24:13.854Z,8.20
2022-11-06T00:26:41.413Z,8.00
2022-11-06T00:29:14.705Z,8.10
2022-11-06T00:31:42.346Z,8.10
2022-11-06T00:34:10.708Z,8.00
2022-11-06T00:36:37.788Z,8.20
2022-11-06T00:39:06.117Z,8.10
2022-11-06T00:41:33.090Z,7.90
2022-11-06T00:44:02.417Z,8.10
2022-11-06T00:46:30.087Z,7.90
2022-11-06T00:51:29.114Z,7.70
2022-11-06T00:56:30.925Z,7.90
2022-11-06T00:59:04.363Z,7.90
2022-11-06T01:01:35.615Z,7.80
2022-11-06T01:04:12.283Z,7.90
2022-11-06T01:06:43.016Z,7.90
2022-11-06T01:09:14.292Z,7.80
2022-11-06T01:14:32.935Z,7.80
2022-11-06T01:17:00.052Z,7.90
2022-11-06T01:19:27.124Z,7.80
2022-11-06T01:21:54.392Z,7.80
2022-11-06T01:24:26.504Z,7.70
2022-11-06T01:27:24.242Z,7.70
2022-11-06T01:29:40.836Z,7.60
2022-11-06T01:32:08.075Z,7.70
2022-11-06T01:37:02.583Z,7.40
2022-11-06T01:39:31.141Z,7.50
2022-11-06T01:41:58.401Z,7.40
2022-11-06T01:44:43.824Z,7.80
2022-11-06T01:47:28.851Z,7.70
2022-11-06T01:50:02.510Z,7.50
2022-11-06T01:52:33.167Z,8.30
2022-11-06T01:55:19.674Z,7.60
2022-11-06T01:57:48.503Z,7.50
2022-11-06T02:00:16.009Z,7.70
2022-11-06T02:02:43.428Z,7.50
2022-11-06T02:05:10.814Z,7.60
2022-11-06T02:07:39.324Z,7.60
2022-11-06T02:10:06.856Z,7.70
2022-11-06T02:13:06.913Z,8.70
2022-11-06T02:18:33.762Z,7.50
2022-11-06T02:21:38.129Z,7.50
2022-11-06T02:24:43.838Z,7.50
2022-11-06T02:30:11.298Z,7.40
2022-11-06T02:33:02.550Z,7.40
2022-11-06T02:35:35.653Z,8.50
2022-11-06T02:38:18.334Z,7.40
2022-11-06T02:40:52.358Z,7.40
2022-11-06T02:43:24.002Z,7.40
2022-11-06T02:46:30.790Z,7.50
2022-11-06T02:49:05.618Z,7.30
2022-11-06T02:51:37.867Z,7.20
2022-11-06T02:54:05.825Z,7.30
2022-11-06T02:56:39.616Z,7.30
2022-11-06T02:59:23.947Z,7.30
2022-11-06T03:01:57.662Z,7.20
2022-11-06T03:04:48.660Z,7.10
2022-11-06T03:07:31.501Z,7.30
2022-11-06T03:09:58.859Z,7.30
2022-11-06T03:12:33.829Z,7.10
2022-11-06T03:15:33.420Z,7.30
2022-11-06T03:18:28.031Z,7.10
2022-11-06T03:21:06.613Z,7.10
2022-11-06T03:23:48.497Z,7.00
2022-11-06T03:26:30.218Z,7.20
2022-11-06T03:29:04.030Z,7.20
2022-11-06T03:31:39.840Z,6.90
2022-11-06T03:34:21.512Z,7.10
2022-11-06T03:36:59.633Z,7.20
2022-11-06T03:39:33.199Z,7.20
2022-11-06T03:44:39.506Z,7.00
2022-11-06T03:47:38.213Z,6.90
2022-11-06T03:50:26.690Z,7.40
2022-11-06T03:53:09.636Z,6.90
2022-11-06T03:55:45.490Z,7.60
2022-11-06T03:58:19.406Z,7.00
2022-11-06T04:00:47.370Z,6.90
2022-11-06T04:03:23.263Z,6.80
2022-11-06T04:06:05.027Z,6.90
2022-11-06T04:08:51.824Z,7.00
2022-11-06T04:11:41.441Z,6.90
2022-11-06T04:14:09.431Z,6.80
2022-11-06T04:16:39.421Z,6.90
2022-11-06T04:19:19.785Z,6.80
2022-11-06T04:22:30.636Z,6.80
2022-11-06T04:25:58.416Z,6.80
2022-11-06T04:29:13.485Z,6.70
2022-11-06T04:32:12.153Z,6.80
2022-11-06T04:35:04.445Z,6.90
2022-11-06T04:37:44.666Z,6.90
2022-11-06T04:40:25.463Z,6.70
2022-11-06T04:43:23.298Z,6.70
2022-11-06T04:45:53.754Z,6.70
2022-11-06T04:48:22.971Z,6.70
2022-11-06T04:50:55.680Z,6.70
2022-11-06T04:53:24.126Z,6.50
2022-11-06T04:56:01.691Z,6.60
2022-11-06T04:58:28.654Z,6.70
2022-11-06T05:00:55.689Z,6.60
2022-11-06T05:03:22.698Z,6.60
2022-11-06T05:05:49.768Z,6.50
2022-11-06T05:08:19.849Z,6.60
2022-11-06T05:10:47.976Z,6.50
2022-11-06T05:13:15.903Z,6.50
2022-11-06T05:15:43.090Z,6.50
2022-11-06T05:18:10.398Z,6.50
2022-11-06T05:20:37.713Z,6.80
2022-11-06T05:25:38.316Z,6.60
2022-11-06T05:28:08.081Z,6.40
2022-11-06T05:30:37.385Z,6.50
2022-11-06T05:33:04.809Z,6.50
2022-11-06T05:38:01.943Z,6.50
2022-11-06T05:42:56.516Z,6.50
2022-11-06T05:45:23.479Z,6.40
2022-11-06T05:47:50.481Z,6.40
2022-11-06T05:50:17.504Z,6.40
2022-11-06T05:52:44.565Z,6.40
2022-11-06T05:55:14.679Z,6.40
2022-11-06T06:00:11.751Z,6.50
2022-11-06T06:02:43.161Z,6.40
2022-11-06T06:07:37.745Z,6.30
2022-11-06T06:12:32.925Z,6.20
2022-11-06T06:17:27.516Z,6.30
2022-11-06T06:27:17.305Z,6.30
2022-11-06T06:32:11.696Z,6.20
2022-11-06T06:42:01.172Z,6.30
2022-11-06T06:49:23.495Z,6.20
2022-11-06T06:51:50.732Z,6.40
2022-11-06T07:01:39.998Z,6.20
2022-11-06T07:06:35.800Z,6.30
2022-11-06T07:11:30.470Z,6.30
2022-11-06T07:21:25.236Z,6.10
2022-11-06T07:28:50.201Z,6.10
2022-11-06T07:36:13.749Z,6.30
2022-11-06T07:38:42.970Z,6.20
2022-11-06T07:41:15.884Z,6.60
2022-11-06T07:46:13.459Z,5.50
2022-11-06T07:51:11.239Z,6.00
2022-11-06T07:53:38.885Z,6.20
2022-11-06T07:56:06.476Z,6.20
2022-11-06T08:05:58.883Z,6.10
2022-11-06T08:13:22.390Z,6.10
2022-11-06T08:15:49.915Z,6.10
2022-11-06T08:18:17.412Z,6.10
2022-11-06T08:23:13.581Z,6.10
2022-11-06T08:25:40.919Z,5.90
2022-11-06T08:33:07.528Z,5.90
2022-11-06T08:43:04.203Z,6.10
2022-11-06T08:48:04.061Z,6.00
2022-11-06T08:50:32.669Z,6.00
2022-11-06T08:55:32.685Z,6.10
2022-11-06T09:03:14.156Z,6.20
2022-11-06T09:05:43.125Z,6.20
2022-11-06T09:08:11.502Z,6.30
2022-11-06T09:10:40.266Z,6.30
2022-11-06T09:21:12.941Z,7.00
2022-11-06T09:31:08.351Z,6.60
2022-11-06T09:33:36.128Z,6.50
2022-11-06T09:36:08.223Z,7.10
2022-11-06T09:38:35.268Z,6.70
2022-11-06T09:41:03.659Z,6.80
2022-11-06T09:44:08.508Z,7.00
2022-11-06T09:46:46.106Z,6.90
2022-11-06T09:49:48.668Z,6.90
2022-11-06T09:52:33.256Z,7.00
2022-11-06T09:55:23.595Z,7.00
2022-11-06T09:58:20.309Z,7.10
2022-11-06T10:00:53.632Z,7.00
2022-11-06T10:03:41.137Z,7.00
2022-11-06T10:11:26.258Z,7.30
2022-11-06T10:17:03.325Z,7.10
2022-11-06T10:19:56.908Z,7.10
2022-11-06T10:25:24.237Z,7.10
2022-11-06T10:28:04.536Z,7.20
2022-11-06T10:30:58.654Z,7.30
2022-11-06T10:38:39.188Z,7.30
2022-11-06T10:43:57.827Z,7.40
2022-11-06T10:46:32.315Z,7.40
2022-11-06T10:49:03.400Z,7.10
2022-11-06T10:51:44.650Z,7.40
2022-11-06T10:55:11.936Z,7.40
2022-11-06T10:58:19.007Z,7.30
2022-11-06T11:03:28.287Z,7.50
2022-11-06T11:05:55.749Z,7.40
2022-11-06T11:08:37.656Z,7.90
2022-11-06T11:11:18.012Z,7.60
2022-11-06T11:13:49.036Z,7.90
2022-11-06T11:16:21.589Z,8.10
2022-11-06T11:18:50.656Z,8.20
2022-11-06T11:21:25.887Z,8.30
2022-11-06T11:24:10.561Z,9.00
2022-11-06T11:27:02.524Z,9.80
2022-11-06T11:29:32.600Z,9.80
2022-11-06T11:32:05.230Z,10.10
2022-11-06T11:34:36.769Z,10.20
2022-11-06T11:37:06.471Z,9.70
2022-11-06T11:39:44.271Z,10.40
2022-11-06T11:42:27.677Z,11.30
2022-11-06T11:45:09.859Z,11.10
2022-11-06T11:47:42.319Z,10.90
2022-11-06T11:50:27.051Z,10.60
2022-11-06T11:53:20.028Z,10.40
2022-11-06T11:55:50.786Z,9.90
2022-11-06T12:01:04.860Z,10.20
2022-11-06T12:03:40.077Z,10.50
2022-11-06T12:06:14.383Z,11.30
2022-11-06T12:08:49.257Z,12.20
2022-11-06T12:11:23.483Z,13.00
2022-11-06T12:14:23.676Z,12.40
2022-11-06T12:16:55.094Z,11.40
2022-11-06T12:19:26.231Z,11.00
2022-11-06T12:22:00.290Z,12.10
2022-11-06T12:24:52.183Z,11.80
2022-11-06T12:27:32.966Z,11.60
2022-11-06T12:30:10.665Z,12.40
2022-11-06T12:33:00.224Z,12.30
2022-11-06T12:35:42.507Z,12.90
2022-11-06T12:38:19.415Z,12.50
2022-11-06T12:43:46.404Z,12.90
2022-11-06T12:46:59.479Z,12.40
2022-11-06T12:49:36.039Z,11.80
2022-11-06T12:52:18.184Z,11.30
2022-11-06T12:55:59.599Z,11.00
2022-11-06T12:58:46.879Z,10.80
2022-11-06T13:01:43.219Z,10.20
2022-11-06T13:04:26.438Z,11.50
2022-11-06T13:07:20.417Z,9.90
2022-11-06T13:10:24.549Z,9.80
2022-11-06T13:13:30.709Z,9.60
2022-11-06T13:16:21.163Z,9.60
2022-11-06T13:19:19.605Z,9.40
2022-11-06T13:22:09.899Z,9.20
2022-11-06T13:24:54.626Z,9.40
2022-11-06T13:27:50.865Z,9.30
2022-11-06T13:30:21.354Z,9.00
2022-11-06T13:33:15.943Z,9.30
2022-11-06T13:35:45.425Z,9.10
2022-11-06T13:38:27.048Z,9.30
2022-11-06T13:41:04.028Z,9.20
2022-11-06T13:43:39.340Z,9.20
2022-11-06T13:46:38.135Z,10.70
2022-11-06T13:49:14.232Z,9.00
2022-11-06T13:51:59.023Z,9.20
2022-11-06T13:55:12.364Z,9.10
2022-11-06T13:58:04.321Z,9.50
2022-11-06T14:00:45.507Z,9.30
2022-11-06T14:03:37.222Z,9.10
2022-11-06T14:06:20.744Z,9.50
2022-11-06T14:09:00.888Z,9.30
2022-11-06T14:11:34.937Z,9.30
2022-11-06T14:14:04.637Z,9.10
2022-11-06T14:16:37.909Z,9.10
2022-11-06T14:19:06.754Z,9.30
2022-11-06T14:21:36.698Z,9.30
2022-11-06T14:24:30.757Z,9.20
2022-11-06T14:26:58.729Z,9.10
2022-11-06T14:29:28.692Z,9.10
2022-11-06T14:32:21.445Z,9.10
2022-11-06T14:34:48.767Z,11.10
2022-11-06T14:37:18.576Z,9.10
2022-11-06T14:39:51.348Z,8.90
2022-11-06T14:42:27.265Z,9.00
2022-11-06T14:45:11.957Z,8.90
2022-11-06T14:47:49.513Z,8.90
2022-11-06T14:50:19.078Z,8.80
2022-11-06T14:52:57.582Z,9.00
2022-11-06T14:55:41.528Z,9.00
2022-11-06T14:58:24.126Z,8.80
2022-11-06T15:01:10.602Z,8.90
2022-11-06T15:03:57.689Z,8.90
2022-11-06T15:06:33.791Z,8.90
2022-11-06T15:09:11.944Z,8.30
2022-11-06T15:11:47.928Z,8.80
2022-11-06T15:14:15.044Z,8.90
2022-11-06T15:16:52.116Z,8.90
2022-11-06T15:19:28.182Z,8.70
2022-11-06T15:22:15.784Z,8.70
2022-11-06T15:25:00.538Z,8.60
2022-11-06T15:27:38.980Z,8.80
2022-11-06T15:30:17.188Z,8.70
2022-11-06T15:32:46.807Z,8.70
2022-11-06T15:35:22.818Z,9.10
2022-11-06T15:38:06.204Z,8.90
2022-11-06T15:40:36.081Z,8.90
2022-11-06T15:43:29.031Z,9.00
2022-11-06T15:46:29.410Z,8.70
2022-11-06T15:49:18.128Z,8.60
2022-11-06T15:51:59.849Z,8.80
2022-11-06T15:54:40.716Z,8.80
2022-11-06T15:57:22.155Z,8.60
2022-11-06T16:00:12.645Z,8.80
2022-11-06T16:03:03.628Z,8.60
2022-11-06T16:05:34.966Z,8.40
2022-11-06T16:08:03.567Z,8.60
2022-11-06T16:10:30.555Z,8.50
2022-11-06T16:12:57.783Z,8.60
2022-11-06T16:15:45.537Z,8.70
2022-11-06T16:18:44.011Z,8.70
2022-11-06T16:21:21.579Z,8.00
2022-11-06T16:24:04.863Z,8.60
2022-11-06T16:26:35.600Z,8.70
2022-11-06T16:29:19.842Z,8.50
2022-11-06T16:31:48.447Z,8.40
2022-11-06T16:34:30.533Z,8.50
2022-11-06T16:37:29.801Z,8.50
2022-11-06T16:39:59.405Z,8.50
2022-11-06T16:42:35.914Z,8.30
2022-11-06T16:45:16.879Z,8.50
2022-11-06T16:48:06.788Z,8.40
2022-11-06T16:50:52.758Z,8.10
2022-11-06T16:53:27.984Z,8.40
2022-11-06T16:56:08.029Z,8.40
2022-11-06T16:58:57.244Z,8.40
2022-11-06T17:01:26.844Z,8.50
2022-11-06T17:04:02.088Z,8.40
2022-11-06T17:06:35.646Z,8.40
2022-11-06T17:09:22.680Z,8.30
2022-11-06T17:11:54.986Z,8.00
2022-11-06T17:14:23.665Z,8.30
2022-11-06T17:17:00.263Z,8.40
2022-11-06T17:19:29.735Z,8.40
2022-11-06T17:54:36.471Z,8.50
2022-11-06T17:57:07.254Z,8.30
2022-11-06T17:59:35.721Z,8.40
2022-11-06T18:04:31.514Z,8.30
2022-11-06T18:11:55.972Z,8.50
2022-11-06T18:14:25.611Z,8.20
2022-11-06T18:16:53.577Z,8.30
2022-11-06T18:19:23.777Z,8.40
2022-11-06T18:26:48.076Z,8.30
2022-11-06T18:36:50.668Z,8.40
2022-11-06T18:44:17.406Z,8.40
2022-11-06T18:46:47.036Z,8.30
2022-11-06T18:54:11.945Z,8.40
2022-11-06T18:59:16.183Z,8.30
2022-11-06T19:09:09.079Z,8.40
2022-11-06T19:16:31.293Z,8.60
2022-11-06T19:24:05.560Z,10.40
2022-11-06T19:26:35.316Z,8.60
2022-11-06T19:29:03.721Z,8.50
2022-11-06T19:31:33.063Z,9.80
2022-11-06T19:34:02.461Z,8.50
2022-11-06T19:36:30.961Z,8.50
2022-11-06T19:38:59.652Z,7.70
2022-11-06T19:41:28.392Z,8.50
2022-11-06T19:53:57.307Z,8.30
2022-11-06T20:01:21.789Z,8.30
2022-11-06T20:08:50.253Z,8.40
2022-11-06T20:16:19.869Z,8.40
2022-11-06T20:18:59.333Z,8.50
2022-11-06T20:21:28.735Z,8.40
2022-11-06T20:23:57.317Z,8.20
2022-11-06T20:33:50.508Z,8.20
2022-11-06T20:38:47.373Z,8.70
2022-11-06T20:46:13.028Z,8.60
2022-11-06T20:51:17.698Z,8.90
2022-11-06T20:56:20.567Z,8.80
2022-11-06T21:01:21.102Z,8.90
2022-11-06T21:03:50.026Z,8.90
2022-11-06T21:08:53.481Z,8.90
2022-11-06T21:11:25.456Z,8.80
2022-11-06T21:13:54.748Z,8.70
2022-11-06T21:16:29.407Z,8.70
2022-11-06T21:21:33.152Z,8.70
2022-11-06T21:24:02.170Z,8.90
2022-11-06T21:26:34.272Z,8.80
2022-11-06T21:29:03.529Z,6.10
2022-11-06T21:31:34.875Z,8.90
2022-11-06T21:34:04.206Z,8.80
2022-11-06T21:36:35.446Z,8.80
2022-11-06T21:39:10.064Z,8.80
2022-11-06T21:44:07.762Z,9.10
2022-11-06T21:49:04.331Z,9.40
2022-11-06T21:51:34.245Z,10.30
2022-11-06T21:59:26.738Z,9.30
2022-11-06T22:11:54.500Z,9.90
2022-11-06T22:14:23.981Z,9.10
2022-11-06T22:16:53.453Z,9.30
2022-11-06T22:19:24.315Z,9.40
2022-11-06T22:21:54.950Z,9.00
2022-11-06T22:31:49.798Z,9.50
2022-11-06T22:51:49.808Z,8.60
2022-11-06T23:04:15.521Z,9.50
2022-11-06T23:06:47.002Z,9.60
2022-11-06T23:09:15.104Z,9.80
2022-11-06T23:14:11.873Z,10.20
2022-11-06T23:19:32.371Z,9.20
2022-11-06T23:29:51.637Z,9.30
2022-11-06T23:34:54.328Z,9.10
2022-11-06T23:37:33.715Z,9.00
2022-11-06T23:40:27.277Z,10.00
2022-11-06T23:48:41.748Z,8.80
2022-11-06T23:53:51.251Z,8.70
2022-11-06T23:56:25.246Z,8.80
2022-11-06T23:58:57.432Z,9.20
